UACP

Details ICAO UACP (PPK)
Name Petropavlovsk
Region Kazakhstan and Kyrgyzstan
Timezone Asia/Almaty (UTC+6.0)
Plans Departing 10
Arriving 21
Stats Elevation 452 ft / 138 m (AMSL)
Location 54.776778° 69.185900°
Runways 3
Magnetic Variation 12.705° E
Sunrise 2018-05-26 23:00:38 UTC / 2018-05-27 05:00:38 Local
Sunset 2018-05-27 15:43:02 UTC / 2018-05-27 21:43:02 Local
Advertisement - Login to hide

Runways

ID Width Length Bearing (true) Bearing (mag) Surface Threshold Offset Overrun Length
05 138 ft / 42 m 8,197 ft / 2,499 m 65.54° 52.84° Asphalt 0 ft / 0 m 0 ft / 0 m
05L 164 ft / 50 m 6,707 ft / 2,044 m 65.55° 52.85° Grass 0 ft / 0 m 0 ft / 0 m
14 492 ft / 150 m 1,970 ft / 601 m 335.03° 322.33° Grass 0 ft / 0 m 0 ft / 0 m
23 138 ft / 42 m 8,197 ft / 2,499 m 245.57° 232.87° Asphalt 0 ft / 0 m 0 ft / 0 m
23R 164 ft / 50 m 6,707 ft / 2,044 m 245.57° 232.87° Grass 0 ft / 0 m 0 ft / 0 m
32 492 ft / 150 m 1,970 ft / 601 m 155.03° 142.33° Grass 0 ft / 0 m 0 ft / 0 m

Map

Weather


0- 5 10 15 20 25 30 35+ Temperature / ° C

Clouds and Precipitation
Forecast for 2018-05-27 06:00 UTC. Updated 3 hours ago

Ground ~20,000 ft ~40,000 ft Winds

METAR

UACP 270830Z 32006MPS CAVOK 09/M00 Q1013 R05/1/0060 NOSIG RMK QFE748/0997

TAF

Not found

Frequencies

Tower 123.70 MHz UACP Tower
Warning: Do not use this data for real-world aviation or navigation. No guarantee of current accuracy is given.